createdAt,value
2019-04-20T00:02:23.385Z,9.70
2019-04-20T00:04:51.441Z,9.70
2019-04-20T00:07:25.693Z,9.70
2019-04-20T00:09:57.585Z,9.60
2019-04-20T00:12:34.173Z,9.50
2019-04-20T00:14:50.629Z,9.40
2019-04-20T00:17:19.994Z,9.40
2019-04-20T00:20:15.560Z,9.40
2019-04-20T00:23:22.635Z,9.50
2019-04-20T00:26:16.166Z,9.40
2019-04-20T00:28:56.140Z,9.40
2019-04-20T00:31:28.319Z,9.50
2019-04-20T00:33:54.921Z,9.50
2019-04-20T00:36:11.951Z,9.50
2019-04-20T00:39:03.853Z,9.60
2019-04-20T00:41:35.163Z,9.70
2019-04-20T00:44:06.932Z,9.90
2019-04-20T00:46:39.679Z,10.00
2019-04-20T00:49:16.421Z,10.10
2019-04-20T00:51:48.053Z,10.10
2019-04-20T00:54:02.584Z,10.20
2019-04-20T00:56:31.335Z,10.20
2019-04-20T00:59:13.032Z,10.10
2019-04-20T01:01:49.737Z,10.10
2019-04-20T01:04:19.823Z,10.10
2019-04-20T01:06:53.930Z,10.10
2019-04-20T01:12:12.486Z,10.10
2019-04-20T01:14:43.361Z,10.10
2019-04-20T01:17:26.761Z,10.10
2019-04-20T01:19:55.212Z,10.10
2019-04-20T01:22:27.257Z,9.90
2019-04-20T01:24:55.007Z,10.00
2019-04-20T01:27:38.737Z,10.00
2019-04-20T01:30:06.959Z,10.10
2019-04-20T01:32:36.022Z,10.00
2019-04-20T01:35:05.849Z,10.00
2019-04-20T01:37:36.532Z,10.10
2019-04-20T01:39:58.854Z,10.20
2019-04-20T01:42:25.593Z,10.20
2019-04-20T01:44:56.673Z,10.20
2019-04-20T01:47:33.194Z,10.10
2019-04-20T01:50:01.765Z,10.00
2019-04-20T01:52:28.718Z,10.00
2019-04-20T01:55:24.470Z,9.90
2019-04-20T01:58:00.424Z,9.80
2019-04-20T02:03:36.935Z,9.70
2019-04-20T02:06:07.467Z,9.70
2019-04-20T02:08:33.013Z,9.70
2019-04-20T02:11:04.346Z,9.70
2019-04-20T02:13:41.220Z,9.50
2019-04-20T02:16:11.374Z,9.40
2019-04-20T02:18:44.155Z,9.30
2019-04-20T02:21:20.879Z,9.20
2019-04-20T02:23:40.885Z,9.10
2019-04-20T02:26:03.505Z,9.00
2019-04-20T02:28:56.863Z,9.00
2019-04-20T02:31:44.522Z,9.10
2019-04-20T02:41:57.522Z,9.20
2019-04-20T02:44:35.688Z,9.30
2019-04-20T02:46:55.851Z,9.10
2019-04-20T02:51:52.690Z,8.90
2019-04-20T02:57:03.415Z,8.70
2019-04-20T03:01:51.883Z,8.50
2019-04-20T03:03:58.466Z,8.40
2019-04-20T03:06:36.310Z,8.50
2019-04-20T03:09:15.174Z,8.50
2019-04-20T03:11:54.032Z,8.50
2019-04-20T03:14:14.941Z,8.70
2019-04-20T03:16:45.559Z,9.10
2019-04-20T03:19:14.170Z,9.00
2019-04-20T03:21:51.364Z,8.70
2019-04-20T03:24:23.472Z,9.00
2019-04-20T03:26:40.577Z,9.00
2019-04-20T03:37:30.606Z,9.00
2019-04-20T03:39:52.641Z,9.00
2019-04-20T03:42:10.784Z,9.10
2019-04-20T03:44:48.311Z,9.10
2019-04-20T03:47:13.643Z,9.10
2019-04-20T03:50:02.701Z,9.00
2019-04-20T03:52:36.539Z,8.90
2019-04-20T03:55:16.560Z,8.80
2019-04-20T03:57:54.225Z,8.80
2019-04-20T04:00:22.040Z,8.80
2019-04-20T04:03:13.633Z,8.70
2019-04-20T04:05:32.444Z,8.60
2019-04-20T04:08:01.236Z,8.60
2019-04-20T04:10:30.507Z,8.70
2019-04-20T04:13:09.985Z,8.60
2019-04-20T04:16:05.108Z,8.60
2019-04-20T04:18:37.299Z,8.70
2019-04-20T04:21:07.655Z,8.70
2019-04-20T04:23:44.768Z,8.60
2019-04-20T04:26:16.666Z,8.60
2019-04-20T04:28:47.517Z,8.60
2019-04-20T04:31:22.986Z,8.60
2019-04-20T04:33:56.925Z,8.50
2019-04-20T04:36:17.699Z,8.50
2019-04-20T04:38:56.087Z,8.50
2019-04-20T04:43:53.994Z,8.50
2019-04-20T04:46:05.939Z,8.40
2019-04-20T04:48:38.864Z,8.40
2019-04-20T04:51:12.875Z,8.30
2019-04-20T04:54:02.870Z,8.40
2019-04-20T04:56:26.815Z,8.30
2019-04-20T04:58:56.100Z,8.30
2019-04-20T05:01:28.781Z,8.20
2019-04-20T05:06:41.416Z,8.20
2019-04-20T05:09:00.122Z,8.20
2019-04-20T05:11:26.338Z,8.20
2019-04-20T05:14:02.217Z,8.20
2019-04-20T05:17:01.572Z,8.20
2019-04-20T05:19:23.443Z,8.10
2019-04-20T05:21:59.845Z,8.10
2019-04-20T05:24:51.831Z,8.10
2019-04-20T05:30:01.311Z,8.20
2019-04-20T05:32:41.331Z,8.10
2019-04-20T05:35:21.501Z,8.20
2019-04-20T05:40:25.096Z,8.20
2019-04-20T05:42:52.457Z,8.30
2019-04-20T05:45:22.110Z,8.30
2019-04-20T05:47:55.287Z,8.30
2019-04-20T05:50:23.254Z,8.30
2019-04-20T05:53:03.255Z,8.40
2019-04-20T05:55:31.889Z,8.40
2019-04-20T05:57:59.343Z,8.40
2019-04-20T06:00:33.946Z,8.50
2019-04-20T06:03:02.337Z,8.50
2019-04-20T06:05:36.414Z,8.70
2019-04-20T06:07:59.096Z,8.70
2019-04-20T06:10:32.528Z,8.80
2019-04-20T06:13:00.282Z,8.90
2019-04-20T06:15:47.733Z,9.00
2019-04-20T06:18:24.245Z,9.10
2019-04-20T06:21:02.276Z,9.10
2019-04-20T06:29:02.913Z,9.30
2019-04-20T06:31:36.012Z,9.50
2019-04-20T06:39:20.428Z,9.70
2019-04-20T06:44:26.391Z,9.80
2019-04-20T06:46:58.761Z,9.90
2019-04-20T06:52:00.426Z,10.10
2019-04-20T06:54:21.824Z,10.20
2019-04-20T06:57:00.189Z,10.40
2019-04-20T06:59:38.746Z,10.40
2019-04-20T07:02:11.947Z,10.60
2019-04-20T07:04:43.297Z,10.60
2019-04-20T07:07:19.203Z,10.70
2019-04-20T07:12:03.061Z,10.90
2019-04-20T07:14:31.414Z,10.90
2019-04-20T07:19:55.893Z,11.20
2019-04-20T07:25:01.172Z,11.50
2019-04-20T07:27:29.452Z,11.50
2019-04-20T07:30:03.494Z,11.60
2019-04-20T07:32:23.986Z,11.70
2019-04-20T07:35:01.456Z,12.00
2019-04-20T07:40:07.716Z,12.50
2019-04-20T07:42:35.060Z,12.50
2019-04-20T07:45:07.443Z,12.50
2019-04-20T07:47:41.635Z,12.80
2019-04-20T07:50:01.988Z,13.00
2019-04-20T07:52:14.432Z,13.20
2019-04-20T07:55:28.525Z,13.50
2019-04-20T07:57:31.035Z,13.40
2019-04-20T08:00:00.378Z,13.30
2019-04-20T08:02:57.355Z,13.40
2019-04-20T08:05:33.605Z,13.90
2019-04-20T08:08:02.647Z,14.00
2019-04-20T08:10:33.779Z,14.10
2019-04-20T08:13:21.576Z,14.20
2019-04-20T08:15:50.234Z,14.40
2019-04-20T08:18:16.649Z,14.50
2019-04-20T08:20:42.848Z,14.60
2019-04-20T08:23:12.980Z,14.70
2019-04-20T08:25:30.616Z,14.90
2019-04-20T08:28:16.678Z,15.50
2019-04-20T08:31:00.856Z,15.20
2019-04-20T08:36:22.878Z,15.40
2019-04-20T08:41:20.561Z,16.00
2019-04-20T08:44:21.449Z,16.10
2019-04-20T08:46:26.542Z,16.00
2019-04-20T08:48:59.757Z,16.20
2019-04-20T08:51:26.014Z,16.30
2019-04-20T08:53:51.741Z,16.50
2019-04-20T08:56:18.785Z,16.40
2019-04-20T08:58:36.237Z,16.60
2019-04-20T09:01:08.412Z,16.60
2019-04-20T09:03:46.301Z,16.80
2019-04-20T09:06:15.262Z,17.10
2019-04-20T09:08:46.659Z,17.10
2019-04-20T09:11:19.732Z,17.30
2019-04-20T09:13:43.462Z,17.10
2019-04-20T09:16:06.725Z,17.40
2019-04-20T09:18:49.381Z,17.60
2019-04-20T09:21:20.020Z,17.80
2019-04-20T09:23:57.668Z,17.60
2019-04-20T09:26:26.999Z,17.90
2019-04-20T09:28:54.293Z,18.10
2019-04-20T09:31:31.646Z,18.10
2019-04-20T09:34:21.898Z,17.90
2019-04-20T09:36:51.341Z,17.90
2019-04-20T09:39:21.357Z,18.00
2019-04-20T09:41:59.652Z,17.90
2019-04-20T09:44:15.718Z,18.40
2019-04-20T09:46:49.796Z,18.60
2019-04-20T09:49:26.553Z,18.80
2019-04-20T09:52:01.489Z,18.90
2019-04-20T09:54:34.044Z,19.10
2019-04-20T09:57:03.247Z,18.90
2019-04-20T09:59:33.155Z,19.00
2019-04-20T10:01:50.810Z,19.10
2019-04-20T10:04:15.883Z,19.10
2019-04-20T10:06:45.557Z,19.40
2019-04-20T10:09:15.660Z,19.70
2019-04-20T10:11:45.959Z,20.60
2019-04-20T10:14:14.527Z,20.70
2019-04-20T10:16:44.114Z,19.80
2019-04-20T10:19:13.672Z,19.70
2019-04-20T10:21:43.578Z,20.00
2019-04-20T10:24:12.565Z,20.10
2019-04-20T10:26:41.114Z,19.90
2019-04-20T10:29:09.932Z,19.90
2019-04-20T10:31:46.966Z,20.30
2019-04-20T10:34:09.481Z,20.80
2019-04-20T10:36:39.711Z,20.40
2019-04-20T10:39:09.053Z,20.60
2019-04-20T10:41:45.282Z,20.90
2019-04-20T10:44:09.070Z,21.20
2019-04-20T10:46:38.780Z,23.70
2019-04-20T10:49:09.194Z,22.50
2019-04-20T10:51:37.870Z,23.30
2019-04-20T10:54:06.732Z,25.30
2019-04-20T10:56:35.337Z,28.00
2019-04-20T10:59:03.851Z,24.80
2019-04-20T11:01:33.678Z,25.70
2019-04-20T11:04:03.015Z,26.60
2019-04-20T11:06:32.365Z,24.90
2019-04-20T11:09:01.028Z,26.60
2019-04-20T11:11:31.712Z,24.90
2019-04-20T11:14:06.780Z,23.80
2019-04-20T11:16:30.644Z,23.30
2019-04-20T11:18:59.233Z,23.50
2019-04-20T11:21:28.245Z,24.40
2019-04-20T11:23:58.325Z,25.10
2019-04-20T11:26:28.484Z,25.30
2019-04-20T11:28:57.955Z,25.60
2019-04-20T11:31:35.663Z,28.00
2019-04-20T11:33:56.273Z,29.20
2019-04-20T11:36:25.332Z,29.70
2019-04-20T11:38:54.460Z,26.50
2019-04-20T11:41:26.113Z,27.00
2019-04-20T11:43:53.825Z,28.00
2019-04-20T11:46:22.839Z,29.80
2019-04-20T11:48:51.810Z,30.10
2019-04-20T11:51:21.535Z,29.80
2019-04-20T11:53:50.248Z,30.00
2019-04-20T11:56:23.964Z,29.20
2019-04-20T11:58:49.166Z,29.20
2019-04-20T12:01:23.430Z,28.10
2019-04-20T12:03:58.395Z,28.20
2019-04-20T12:06:21.069Z,29.30
2019-04-20T12:08:49.228Z,28.80
2019-04-20T12:11:28.039Z,27.60
2019-04-20T12:13:48.970Z,27.60
2019-04-20T12:16:17.555Z,28.50
2019-04-20T12:18:46.406Z,27.30
2019-04-20T12:21:14.963Z,26.70
2019-04-20T12:23:44.532Z,27.20
2019-04-20T12:26:13.156Z,27.20
2019-04-20T12:28:41.742Z,27.60
2019-04-20T12:31:13.708Z,28.40
2019-04-20T12:33:40.551Z,28.20
2019-04-20T12:36:10.361Z,28.40
2019-04-20T12:38:39.179Z,27.60
2019-04-20T12:41:11.021Z,27.20
2019-04-20T12:43:38.706Z,27.10
2019-04-20T12:46:07.682Z,27.00
2019-04-20T12:48:37.627Z,26.40
2019-04-20T12:51:06.268Z,26.50
2019-04-20T12:53:34.988Z,26.40
2019-04-20T12:56:04.409Z,26.90
2019-04-20T12:58:33.003Z,26.80
2019-04-20T13:01:02.589Z,26.10
2019-04-20T13:03:31.763Z,26.10
2019-04-20T13:06:01.717Z,26.70
2019-04-20T13:08:36.215Z,27.40
2019-04-20T13:11:02.577Z,26.30
2019-04-20T13:13:32.881Z,26.90
2019-04-20T13:16:05.480Z,26.80
2019-04-20T13:18:39.237Z,26.80
2019-04-20T13:21:09.188Z,27.10
2019-04-20T13:23:37.873Z,27.30
2019-04-20T13:26:08.746Z,27.20
2019-04-20T13:28:37.107Z,26.50
2019-04-20T13:31:06.126Z,26.30
2019-04-20T13:33:34.835Z,26.70
2019-04-20T13:36:04.066Z,25.80
2019-04-20T13:38:34.144Z,24.90
2019-04-20T13:41:03.956Z,24.80
2019-04-20T13:43:32.075Z,25.90
2019-04-20T13:46:00.837Z,25.90
2019-04-20T13:48:30.987Z,26.00
2019-04-20T13:51:00.212Z,26.10
2019-04-20T13:53:29.657Z,26.00
2019-04-20T13:55:59.240Z,25.90
2019-04-20T14:01:22.973Z,24.90
2019-04-20T14:04:05.259Z,25.60
2019-04-20T14:06:35.274Z,26.10
2019-04-20T14:09:05.633Z,26.10
2019-04-20T14:11:34.154Z,25.30
2019-04-20T14:14:05.375Z,25.80
2019-04-20T14:16:33.000Z,26.10
2019-04-20T14:19:02.887Z,25.80
2019-04-20T14:21:32.196Z,26.10
2019-04-20T14:24:01.337Z,26.10
2019-04-20T14:26:30.680Z,25.70
2019-04-20T14:28:59.267Z,26.10
2019-04-20T14:31:28.173Z,26.60
2019-04-20T14:33:57.238Z,26.10
2019-04-20T14:36:26.551Z,25.70
2019-04-20T14:38:56.066Z,26.20
2019-04-20T14:41:24.316Z,26.60
2019-04-20T14:43:53.254Z,26.60
2019-04-20T14:46:22.998Z,26.30
2019-04-20T14:48:52.443Z,26.10
2019-04-20T14:51:21.533Z,26.00
2019-04-20T14:53:51.494Z,26.10
2019-04-20T14:56:20.159Z,25.90
2019-04-20T14:58:56.129Z,26.10
2019-04-20T15:01:30.343Z,26.40
2019-04-20T15:04:04.766Z,26.40
2019-04-20T15:06:29.841Z,25.70
2019-04-20T15:08:58.852Z,25.60
2019-04-20T15:11:27.468Z,25.50
2019-04-20T15:13:56.431Z,25.50
2019-04-20T15:16:26.496Z,25.50
2019-04-20T15:18:57.971Z,25.80
2019-04-20T15:21:31.416Z,25.70
2019-04-20T15:23:59.963Z,25.30
2019-04-20T15:26:28.684Z,25.70
2019-04-20T15:28:57.278Z,25.80
2019-04-20T15:31:26.366Z,25.80
2019-04-20T15:33:55.358Z,24.90
2019-04-20T15:36:24.232Z,25.60
2019-04-20T15:38:53.342Z,25.10
2019-04-20T15:41:23.143Z,25.10
2019-04-20T15:43:52.907Z,25.70
2019-04-20T15:46:21.832Z,25.90
2019-04-20T15:48:55.789Z,25.70
2019-04-20T15:51:25.814Z,25.40
2019-04-20T15:53:55.593Z,24.80
2019-04-20T15:56:24.826Z,24.80
2019-04-20T15:58:54.545Z,24.70
2019-04-20T16:01:26.000Z,24.50
2019-04-20T16:03:57.316Z,24.20
2019-04-20T16:06:27.247Z,23.90
2019-04-20T16:08:57.809Z,23.90
2019-04-20T16:11:26.689Z,23.70
2019-04-20T16:13:56.228Z,23.60
2019-04-20T16:16:25.717Z,23.50
2019-04-20T16:18:55.028Z,23.30
2019-04-20T16:21:27.629Z,23.30
2019-04-20T16:23:58.917Z,23.10
2019-04-20T16:26:47.316Z,23.00
2019-04-20T16:29:17.564Z,22.60
2019-04-20T16:31:48.419Z,22.60
2019-04-20T16:34:16.410Z,22.60
2019-04-20T16:36:46.268Z,22.40
2019-04-20T16:39:16.402Z,22.30
2019-04-20T16:41:46.319Z,22.20
2019-04-20T16:44:15.660Z,22.10
2019-04-20T16:46:44.319Z,22.10
2019-04-20T16:49:13.031Z,22.10
2019-04-20T16:51:42.932Z,22.00
2019-04-20T16:54:11.987Z,21.90
2019-04-20T16:56:40.599Z,21.80
2019-04-20T16:59:11.602Z,21.70
2019-04-20T17:01:40.489Z,21.60
2019-04-20T17:04:13.570Z,21.50
2019-04-20T17:06:42.277Z,21.40
2019-04-20T17:09:12.172Z,21.30
2019-04-20T17:11:41.544Z,21.10
2019-04-20T17:14:10.520Z,21.10
2019-04-20T17:16:39.690Z,21.00
2019-04-20T17:19:09.732Z,20.90
2019-04-20T17:21:38.440Z,20.70
2019-04-20T17:24:07.326Z,20.70
2019-04-20T17:26:43.541Z,20.60
2019-04-20T17:29:17.883Z,20.50
2019-04-20T17:32:05.367Z,20.40
2019-04-20T17:34:51.610Z,20.40
2019-04-20T17:37:04.562Z,20.20
2019-04-20T17:39:47.452Z,20.10
2019-04-20T17:42:19.957Z,20.00
2019-04-20T17:44:47.054Z,20.00
2019-04-20T17:47:29.109Z,19.90
2019-04-20T17:49:57.685Z,19.80
2019-04-20T17:55:57.277Z,19.50
2019-04-20T17:58:29.839Z,19.50
2019-04-20T18:01:04.976Z,19.40
2019-04-20T18:06:30.494Z,19.30
2019-04-20T18:08:57.853Z,19.20
2019-04-20T18:11:14.468Z,19.00
2019-04-20T18:13:37.481Z,18.90
2019-04-20T18:16:32.619Z,18.80
2019-04-20T18:18:58.515Z,18.60
2019-04-20T18:21:21.154Z,18.60
2019-04-20T18:23:51.757Z,18.50
2019-04-20T18:26:38.128Z,18.40
2019-04-20T18:29:15.019Z,18.20
2019-04-20T18:31:23.775Z,18.10
2019-04-20T18:33:54.177Z,18.00
2019-04-20T18:36:28.885Z,17.90
2019-04-20T18:38:58.534Z,17.80
2019-04-20T18:41:30.757Z,17.70
2019-04-20T18:43:57.415Z,17.50
2019-04-20T18:46:49.505Z,17.50
2019-04-20T18:49:10.302Z,17.40
2019-04-20T18:51:23.886Z,17.20
2019-04-20T18:53:53.889Z,17.10
2019-04-20T18:56:28.531Z,17.10
2019-04-20T18:58:53.413Z,17.00
2019-04-20T19:01:29.544Z,16.70
2019-04-20T19:03:53.933Z,16.70
2019-04-20T19:06:23.466Z,16.40
2019-04-20T19:08:53.695Z,16.30
2019-04-20T19:11:24.984Z,16.20
2019-04-20T19:13:59.201Z,16.10
2019-04-20T19:16:46.677Z,16.10
2019-04-20T19:19:12.554Z,15.80
2019-04-20T19:21:54.172Z,15.80
2019-04-20T19:24:27.657Z,15.50
2019-04-20T19:26:57.421Z,15.40
2019-04-20T19:29:30.042Z,15.50
2019-04-20T19:32:11.548Z,15.40
2019-04-20T19:34:36.651Z,15.10
2019-04-20T19:37:09.312Z,15.10
2019-04-20T19:39:39.917Z,15.20
2019-04-20T19:42:08.402Z,15.30
2019-04-20T19:44:38.124Z,15.30
2019-04-20T19:47:15.893Z,15.00
2019-04-20T19:49:35.711Z,14.70
2019-04-20T19:52:25.181Z,14.60
2019-04-20T19:54:46.595Z,14.60
2019-04-20T19:57:11.849Z,14.50
2019-04-20T19:59:37.712Z,14.40
2019-04-20T20:01:58.179Z,14.20
2019-04-20T20:04:26.689Z,14.00
2019-04-20T20:07:02.043Z,13.80
2019-04-20T20:09:25.924Z,13.80
2019-04-20T20:11:57.172Z,13.60
2019-04-20T20:14:32.305Z,13.50
2019-04-20T20:17:08.955Z,13.50
2019-04-20T20:19:38.194Z,13.60
2019-04-20T20:22:08.991Z,13.50
2019-04-20T20:24:27.261Z,13.50
2019-04-20T20:27:02.109Z,13.40
2019-04-20T20:29:34.032Z,13.40
2019-04-20T20:32:10.397Z,13.20
2019-04-20T20:34:35.525Z,13.10
2019-04-20T20:37:00.564Z,13.10
2019-04-20T20:39:31.058Z,13.10
2019-04-20T20:42:13.159Z,12.80
2019-04-20T20:44:40.216Z,12.80
2019-04-20T20:47:18.621Z,12.80
2019-04-20T20:49:48.019Z,12.70
2019-04-20T20:52:18.709Z,12.60
2019-04-20T20:54:41.252Z,12.60
2019-04-20T20:57:06.852Z,12.40
2019-04-20T20:59:41.543Z,12.40
2019-04-20T21:02:06.388Z,12.60
2019-04-20T21:05:05.947Z,12.50
2019-04-20T21:07:34.666Z,12.40
2019-04-20T21:10:04.547Z,12.30
2019-04-20T21:12:36.468Z,12.20
2019-04-20T21:15:10.868Z,12.10
2019-04-20T21:18:17.403Z,12.10
2019-04-20T21:20:46.470Z,12.00
2019-04-20T21:23:06.914Z,11.90
2019-04-20T21:25:33.467Z,11.90
2019-04-20T21:27:57.012Z,12.00
2019-04-20T21:30:32.974Z,11.80
2019-04-20T21:33:00.420Z,11.90
2019-04-20T21:35:26.075Z,11.90
2019-04-20T21:38:00.408Z,12.00
2019-04-20T21:40:32.386Z,11.90
2019-04-20T21:42:59.222Z,11.90
2019-04-20T21:45:30.535Z,11.70
2019-04-20T21:47:56.605Z,11.60
2019-04-20T21:50:42.540Z,11.70
2019-04-20T21:53:06.025Z,11.70
2019-04-20T21:55:25.916Z,11.50
2019-04-20T21:57:57.350Z,11.40
2019-04-20T22:00:44.617Z,11.30
2019-04-20T22:03:11.429Z,11.20
2019-04-20T22:05:40.196Z,11.20
2019-04-20T22:08:11.348Z,11.00
2019-04-20T22:10:38.962Z,10.80
2019-04-20T22:13:07.823Z,10.70
2019-04-20T22:15:45.922Z,10.60
2019-04-20T22:18:12.332Z,10.50
2019-04-20T22:20:50.980Z,10.40
2019-04-20T22:23:21.651Z,10.40
2019-04-20T22:25:53.105Z,10.30
2019-04-20T22:28:08.770Z,10.30
2019-04-20T22:30:37.939Z,10.10
2019-04-20T22:33:08.141Z,10.00
2019-04-20T22:36:20.337Z,10.00
2019-04-20T22:39:09.582Z,9.90
2019-04-20T22:41:45.779Z,10.00
2019-04-20T22:44:17.385Z,9.90
2019-04-20T22:46:44.023Z,10.00
2019-04-20T22:49:26.645Z,9.80
2019-04-20T22:51:53.224Z,9.80
2019-04-20T22:54:27.921Z,9.80
2019-04-20T22:56:54.835Z,9.90
2019-04-20T22:59:20.325Z,9.80
2019-04-20T23:01:49.863Z,10.00
2019-04-20T23:04:14.973Z,10.10
2019-04-20T23:06:49.774Z,10.10
2019-04-20T23:09:16.790Z,9.90
2019-04-20T23:11:45.491Z,9.90
2019-04-20T23:14:14.372Z,9.70
2019-04-20T23:16:48.466Z,9.60
2019-04-20T23:19:14.218Z,9.50
2019-04-20T23:21:48.727Z,9.50
2019-04-20T23:24:15.342Z,9.50
2019-04-20T23:26:46.893Z,9.60
2019-04-20T23:29:15.285Z,9.60
2019-04-20T23:31:50.555Z,9.50
2019-04-20T23:34:19.996Z,9.50
2019-04-20T23:36:47.648Z,9.50
2019-04-20T23:39:14.885Z,9.60
2019-04-20T23:42:07.549Z,9.60
2019-04-20T23:44:56.003Z,9.60
2019-04-20T23:50:40.950Z,9.70
2019-04-20T23:53:14.106Z,9.70
2019-04-20T23:55:27.650Z,9.50
2019-04-20T23:58:10.762Z,9.40
